sensor_id;sensor_type;location;lat;lon;timestamp;pressure;altitude;pressure_sealevel;temperature;humidity
35226;BME280;21813;49.686;21.766;2023-02-04T00:02:25;97476.16;;;1.24;100.00
35226;BME280;21813;49.686;21.766;2023-02-04T00:04:50;97471.16;;;1.21;100.00
35226;BME280;21813;49.686;21.766;2023-02-04T00:07:16;97471.94;;;1.23;100.00
35226;BME280;21813;49.686;21.766;2023-02-04T00:09:45;97475.41;;;1.22;100.00
35226;BME280;21813;49.686;21.766;2023-02-04T00:12:16;97477.97;;;1.22;100.00
35226;BME280;21813;49.686;21.766;2023-02-04T00:27:23;97473.00;;;1.19;100.00
35226;BME280;21813;49.686;21.766;2023-02-04T00:29:49;97472.84;;;1.22;100.00
35226;BME280;21813;49.686;21.766;2023-02-04T00:32:43;97463.47;;;1.21;100.00
35226;BME280;21813;49.686;21.766;2023-02-04T00:35:44;97457.63;;;1.19;100.00
35226;BME280;21813;49.686;21.766;2023-02-04T00:39:16;97470.25;;;1.22;100.00
35226;BME280;21813;49.686;21.766;2023-02-04T00:45:48;97458.91;;;1.26;100.00
35226;BME280;21813;49.686;21.766;2023-02-04T00:48:43;97456.25;;;1.28;100.00
35226;BME280;21813;49.686;21.766;2023-02-04T00:51:49;97450.47;;;1.24;100.00
35226;BME280;21813;49.686;21.766;2023-02-04T00:54:25;97455.34;;;1.29;100.00
35226;BME280;21813;49.686;21.766;2023-02-04T01:00:59;97460.38;;;1.30;100.00
35226;BME280;21813;49.686;21.766;2023-02-04T01:07:25;97456.25;;;1.28;100.00
35226;BME280;21813;49.686;21.766;2023-02-04T01:15:46;97448.47;;;1.29;100.00
35226;BME280;21813;49.686;21.766;2023-02-04T01:33:42;97417.50;;;1.32;100.00
35226;BME280;21813;49.686;21.766;2023-02-04T01:36:14;97430.97;;;1.36;100.00
35226;BME280;21813;49.686;21.766;2023-02-04T02:10:15;97417.31;;;1.36;100.00
35226;BME280;21813;49.686;21.766;2023-02-04T03:40:06;97415.16;;;0.84;100.00
35226;BME280;21813;49.686;21.766;2023-02-04T03:42:33;97410.03;;;0.84;100.00
35226;BME280;21813;49.686;21.766;2023-02-04T04:55:15;97497.66;;;0.76;100.00
35226;BME280;21813;49.686;21.766;2023-02-04T04:57:40;97501.13;;;0.75;100.00
35226;BME280;21813;49.686;21.766;2023-02-04T05:15:21;97539.84;;;0.71;100.00
35226;BME280;21813;49.686;21.766;2023-02-04T05:17:47;97549.38;;;0.69;100.00
35226;BME280;21813;49.686;21.766;2023-02-04T05:20:13;97557.19;;;0.66;100.00
35226;BME280;21813;49.686;21.766;2023-02-04T05:22:40;97573.66;;;0.62;100.00
35226;BME280;21813;49.686;21.766;2023-02-04T05:33:55;97619.25;;;0.39;100.00
35226;BME280;21813;49.686;21.766;2023-02-04T05:36:26;97627.25;;;0.33;100.00
35226;BME280;21813;49.686;21.766;2023-02-04T05:38:58;97644.38;;;0.33;100.00
35226;BME280;21813;49.686;21.766;2023-02-04T05:41:29;97643.94;;;0.25;100.00
35226;BME280;21813;49.686;21.766;2023-02-04T05:44:29;97647.03;;;0.14;100.00
35226;BME280;21813;49.686;21.766;2023-02-04T05:46:58;97668.50;;;0.12;100.00
35226;BME280;21813;49.686;21.766;2023-02-04T05:49:28;97678.81;;;0.10;100.00
35226;BME280;21813;49.686;21.766;2023-02-04T06:08:35;97772.72;;;-0.25;100.00
35226;BME280;21813;49.686;21.766;2023-02-04T06:17:24;97806.63;;;-0.38;100.00
35226;BME280;21813;49.686;21.766;2023-02-04T06:20:39;97862.66;;;-0.51;100.00
35226;BME280;21813;49.686;21.766;2023-02-04T06:38:03;97972.47;;;-1.07;100.00
35226;BME280;21813;49.686;21.766;2023-02-04T06:44:19;98026.09;;;-1.27;100.00
35226;BME280;21813;49.686;21.766;2023-02-04T06:46:49;98012.06;;;-1.39;100.00
35226;BME280;21813;49.686;21.766;2023-02-04T06:49:55;98029.78;;;-1.35;100.00
35226;BME280;21813;49.686;21.766;2023-02-04T06:53:00;98049.56;;;-1.40;100.00
35226;BME280;21813;49.686;21.766;2023-02-04T06:55:27;98050.91;;;-1.53;100.00
35226;BME280;21813;49.686;21.766;2023-02-04T07:04:43;98103.97;;;-1.61;100.00
35226;BME280;21813;49.686;21.766;2023-02-04T07:07:10;98140.00;;;-1.67;100.00
35226;BME280;21813;49.686;21.766;2023-02-04T07:09:55;98165.63;;;-1.70;100.00
35226;BME280;21813;49.686;21.766;2023-02-04T07:12:38;98158.94;;;-1.74;100.00
35226;BME280;21813;49.686;21.766;2023-02-04T07:15:04;98159.78;;;-1.73;100.00
35226;BME280;21813;49.686;21.766;2023-02-04T07:17:44;98181.09;;;-1.74;100.00
35226;BME280;21813;49.686;21.766;2023-02-04T07:20:21;98182.81;;;-1.75;100.00
35226;BME280;21813;49.686;21.766;2023-02-04T07:22:52;98217.91;;;-1.80;100.00
35226;BME280;21813;49.686;21.766;2023-02-04T07:25:25;98225.47;;;-1.77;100.00
35226;BME280;21813;49.686;21.766;2023-02-04T07:28:06;98232.44;;;-1.82;100.00
35226;BME280;21813;49.686;21.766;2023-02-04T07:36:54;98275.16;;;-1.86;100.00
35226;BME280;21813;49.686;21.766;2023-02-04T07:39:57;98265.91;;;-1.90;100.00
35226;BME280;21813;49.686;21.766;2023-02-04T07:42:23;98293.38;;;-1.98;100.00
35226;BME280;21813;49.686;21.766;2023-02-04T07:44:51;98310.53;;;-2.01;100.00
35226;BME280;21813;49.686;21.766;2023-02-04T07:47:16;98319.94;;;-2.03;100.00
35226;BME280;21813;49.686;21.766;2023-02-04T07:49:43;98318.31;;;-2.06;100.00
35226;BME280;21813;49.686;21.766;2023-02-04T07:52:08;98340.63;;;-2.12;100.00
35226;BME280;21813;49.686;21.766;2023-02-04T07:54:35;98362.03;;;-2.16;100.00
35226;BME280;21813;49.686;21.766;2023-02-04T07:57:01;98362.09;;;-2.18;100.00
35226;BME280;21813;49.686;21.766;2023-02-04T07:59:28;98384.44;;;-2.26;100.00
35226;BME280;21813;49.686;21.766;2023-02-04T08:01:54;98401.56;;;-2.30;100.00
35226;BME280;21813;49.686;21.766;2023-02-04T08:04:33;98415.06;;;-2.26;100.00
35226;BME280;21813;49.686;21.766;2023-02-04T08:07:04;98422.84;;;-2.31;100.00
35226;BME280;21813;49.686;21.766;2023-02-04T08:09:31;98453.66;;;-2.37;100.00
35226;BME280;21813;49.686;21.766;2023-02-04T08:11:56;98443.47;;;-2.37;100.00
35226;BME280;21813;49.686;21.766;2023-02-04T08:14:25;98443.47;;;-2.37;100.00
35226;BME280;21813;49.686;21.766;2023-02-04T08:16:54;98457.88;;;-2.36;100.00
35226;BME280;21813;49.686;21.766;2023-02-04T08:19:21;98440.81;;;-2.34;100.00
35226;BME280;21813;49.686;21.766;2023-02-04T08:21:47;98491.81;;;-2.32;100.00
35226;BME280;21813;49.686;21.766;2023-02-04T08:24:15;98498.66;;;-2.34;100.00
35226;BME280;21813;49.686;21.766;2023-02-04T08:26:42;98530.41;;;-2.44;100.00
35226;BME280;21813;49.686;21.766;2023-02-04T08:29:09;98528.69;;;-2.44;100.00
35226;BME280;21813;49.686;21.766;2023-02-04T08:31:36;98527.09;;;-2.48;100.00
35226;BME280;21813;49.686;21.766;2023-02-04T08:34:04;98554.44;;;-2.53;100.00
35226;BME280;21813;49.686;21.766;2023-02-04T08:36:35;98579.09;;;-2.53;100.00
35226;BME280;21813;49.686;21.766;2023-02-04T08:42:33;98565.00;;;-2.68;100.00
35226;BME280;21813;49.686;21.766;2023-02-04T08:45:01;98593.88;;;-2.66;100.00
35226;BME280;21813;49.686;21.766;2023-02-04T08:47:26;98606.63;;;-2.66;100.00
35226;BME280;21813;49.686;21.766;2023-02-04T08:49:53;98616.75;;;-2.63;100.00
35226;BME280;21813;49.686;21.766;2023-02-04T08:52:19;98630.34;;;-2.62;100.00
35226;BME280;21813;49.686;21.766;2023-02-04T08:57:14;98629.56;;;-2.64;100.00
35226;BME280;21813;49.686;21.766;2023-02-04T08:59:41;98653.28;;;-2.61;100.00
35226;BME280;21813;49.686;21.766;2023-02-04T09:02:08;98666.13;;;-2.64;100.00
35226;BME280;21813;49.686;21.766;2023-02-04T09:04:52;98663.56;;;-2.64;100.00
35226;BME280;21813;49.686;21.766;2023-02-04T09:07:17;98674.78;;;-2.73;100.00
35226;BME280;21813;49.686;21.766;2023-02-04T09:09:44;98696.03;;;-2.72;100.00
35226;BME280;21813;49.686;21.766;2023-02-04T09:12:10;98690.09;;;-2.73;100.00
35226;BME280;21813;49.686;21.766;2023-02-04T09:20:34;98728.41;;;-2.74;100.00
35226;BME280;21813;49.686;21.766;2023-02-04T09:23:02;98713.09;;;-2.74;100.00
35226;BME280;21813;49.686;21.766;2023-02-04T09:25:27;98735.03;;;-2.65;100.00
35226;BME280;21813;49.686;21.766;2023-02-04T09:27:53;98729.81;;;-2.61;100.00
35226;BME280;21813;49.686;21.766;2023-02-04T09:30:19;98755.25;;;-2.58;100.00
35226;BME280;21813;49.686;21.766;2023-02-04T09:32:52;98758.81;;;-2.65;100.00
35226;BME280;21813;49.686;21.766;2023-02-04T09:35:17;98794.41;;;-2.59;100.00
35226;BME280;21813;49.686;21.766;2023-02-04T09:37:44;98760.50;;;-2.64;100.00
35226;BME280;21813;49.686;21.766;2023-02-04T09:40:14;98783.41;;;-2.62;100.00
35226;BME280;21813;49.686;21.766;2023-02-04T09:42:43;98775.63;;;-2.55;100.00
35226;BME280;21813;49.686;21.766;2023-02-04T09:45:23;98776.31;;;-2.48;100.00
35226;BME280;21813;49.686;21.766;2023-02-04T09:47:55;98797.50;;;-2.45;100.00
35226;BME280;21813;49.686;21.766;2023-02-04T09:50:24;98797.44;;;-2.42;100.00
35226;BME280;21813;49.686;21.766;2023-02-04T09:52:54;98810.97;;;-2.37;100.00
35226;BME280;21813;49.686;21.766;2023-02-04T09:55:28;98813.56;;;-2.40;100.00
35226;BME280;21813;49.686;21.766;2023-02-04T09:57:56;98809.28;;;-2.38;100.00
35226;BME280;21813;49.686;21.766;2023-02-04T10:00:25;98824.59;;;-2.38;100.00
35226;BME280;21813;49.686;21.766;2023-02-04T10:02:51;98831.38;;;-2.37;100.00
35226;BME280;21813;49.686;21.766;2023-02-04T10:05:20;98821.13;;;-2.35;100.00
35226;BME280;21813;49.686;21.766;2023-02-04T10:08:05;98845.88;;;-2.39;100.00
35226;BME280;21813;49.686;21.766;2023-02-04T10:13:01;98847.44;;;-2.32;100.00
35226;BME280;21813;49.686;21.766;2023-02-04T10:15:32;98860.94;;;-2.27;100.00
35226;BME280;21813;49.686;21.766;2023-02-04T10:18:05;98868.56;;;-2.25;100.00
35226;BME280;21813;49.686;21.766;2023-02-04T10:23:40;98871.75;;;-2.15;100.00
35226;BME280;21813;49.686;21.766;2023-02-04T10:26:14;98888.47;;;-1.99;100.00
35226;BME280;21813;49.686;21.766;2023-02-04T10:31:32;98876.50;;;-1.99;100.00
35226;BME280;21813;49.686;21.766;2023-02-04T10:36:47;98907.50;;;-1.75;100.00
35226;BME280;21813;49.686;21.766;2023-02-04T10:39:26;98916.00;;;-1.75;100.00
35226;BME280;21813;49.686;21.766;2023-02-04T10:41:59;98920.88;;;-1.64;100.00
35226;BME280;21813;49.686;21.766;2023-02-04T10:45:26;98891.19;;;-1.70;100.00
35226;BME280;21813;49.686;21.766;2023-02-04T10:54:52;98925.34;;;-1.74;100.00
35226;BME280;21813;49.686;21.766;2023-02-04T10:57:28;98965.38;;;-1.74;100.00
35226;BME280;21813;49.686;21.766;2023-02-04T11:00:03;98944.94;;;-1.74;100.00
35226;BME280;21813;49.686;21.766;2023-02-04T11:06:26;98976.28;;;-1.66;100.00
35226;BME280;21813;49.686;21.766;2023-02-04T11:09:20;98969.34;;;-1.60;100.00
35226;BME280;21813;49.686;21.766;2023-02-04T11:41:50;99019.09;;;-1.36;100.00
35226;BME280;21813;49.686;21.766;2023-02-04T11:49:26;99026.47;;;-1.22;100.00
35226;BME280;21813;49.686;21.766;2023-02-04T12:00:04;99012.72;;;-1.18;100.00
35226;BME280;21813;49.686;21.766;2023-02-04T12:05:37;99005.81;;;-1.15;100.00
35226;BME280;21813;49.686;21.766;2023-02-04T12:08:44;99026.38;;;-1.19;100.00
35226;BME280;21813;49.686;21.766;2023-02-04T12:15:22;99029.75;;;-1.17;100.00
35226;BME280;21813;49.686;21.766;2023-02-04T12:18:02;99017.94;;;-1.23;100.00
35226;BME280;21813;49.686;21.766;2023-02-04T12:20:37;99034.88;;;-1.17;100.00
35226;BME280;21813;49.686;21.766;2023-02-04T12:23:04;99036.72;;;-1.24;100.00
35226;BME280;21813;49.686;21.766;2023-02-04T12:25:30;99036.69;;;-1.22;100.00
35226;BME280;21813;49.686;21.766;2023-02-04T12:27:56;99038.44;;;-1.24;100.00
35226;BME280;21813;49.686;21.766;2023-02-04T12:30:25;99046.19;;;-1.27;100.00
35226;BME280;21813;49.686;21.766;2023-02-04T12:32:51;99043.63;;;-1.27;100.00
35226;BME280;21813;49.686;21.766;2023-02-04T12:35:18;99036.81;;;-1.28;100.00
35226;BME280;21813;49.686;21.766;2023-02-04T12:37:44;99040.31;;;-1.33;100.00
35226;BME280;21813;49.686;21.766;2023-02-04T12:40:15;99059.16;;;-1.37;100.00
35226;BME280;21813;49.686;21.766;2023-02-04T12:42:42;99070.41;;;-1.45;100.00
35226;BME280;21813;49.686;21.766;2023-02-04T12:45:30;99078.38;;;-1.59;100.00
35226;BME280;21813;49.686;21.766;2023-02-04T12:48:00;99078.66;;;-1.74;100.00
35226;BME280;21813;49.686;21.766;2023-02-04T12:50:29;99084.94;;;-1.90;100.00
35226;BME280;21813;49.686;21.766;2023-02-04T12:52:58;99074.81;;;-1.96;100.00
35226;BME280;21813;49.686;21.766;2023-02-04T12:55:26;99089.38;;;-2.01;100.00
35226;BME280;21813;49.686;21.766;2023-02-04T12:57:53;99075.78;;;-2.02;100.00
35226;BME280;21813;49.686;21.766;2023-02-04T13:00:23;99081.72;;;-2.01;100.00
35226;BME280;21813;49.686;21.766;2023-02-04T13:02:50;99094.50;;;-2.01;100.00
35226;BME280;21813;49.686;21.766;2023-02-04T13:05:16;99091.00;;;-1.97;100.00
35226;BME280;21813;49.686;21.766;2023-02-04T13:07:42;99097.81;;;-1.96;100.00
35226;BME280;21813;49.686;21.766;2023-02-04T13:10:09;99090.97;;;-1.94;100.00
35226;BME280;21813;49.686;21.766;2023-02-04T13:12:35;99092.69;;;-1.95;100.00
35226;BME280;21813;49.686;21.766;2023-02-04T13:15:05;99101.19;;;-1.94;100.00
35226;BME280;21813;49.686;21.766;2023-02-04T13:17:31;99107.78;;;-1.84;100.00
35226;BME280;21813;49.686;21.766;2023-02-04T13:19:57;99105.25;;;-1.84;100.00
35226;BME280;21813;49.686;21.766;2023-02-04T13:22:25;99111.13;;;-1.79;100.00
35226;BME280;21813;49.686;21.766;2023-02-04T13:24:51;99089.97;;;-1.86;100.00
35226;BME280;21813;49.686;21.766;2023-02-04T13:27:17;99100.25;;;-1.90;100.00
35226;BME280;21813;49.686;21.766;2023-02-04T13:29:44;99115.59;;;-1.92;100.00
35226;BME280;21813;49.686;21.766;2023-02-04T13:32:10;99114.78;;;-1.94;100.00
35226;BME280;21813;49.686;21.766;2023-02-04T13:34:36;99124.97;;;-1.92;100.00
35226;BME280;21813;49.686;21.766;2023-02-04T13:37:02;99111.41;;;-1.94;100.00
35226;BME280;21813;49.686;21.766;2023-02-04T13:39:30;99106.31;;;-1.96;100.00
35226;BME280;21813;49.686;21.766;2023-02-04T13:41:55;99116.53;;;-1.94;100.00
35226;BME280;21813;49.686;21.766;2023-02-04T13:44:22;99119.69;;;-1.83;100.00
35226;BME280;21813;49.686;21.766;2023-02-04T13:46:48;99124.88;;;-1.86;100.00
35226;BME280;21813;49.686;21.766;2023-02-04T13:49:14;99136.66;;;-1.79;100.00
35226;BME280;21813;49.686;21.766;2023-02-04T13:51:40;99113.06;;;-1.93;99.46
35226;BME280;21813;49.686;21.766;2023-02-04T13:54:06;99112.28;;;-1.95;99.15
35226;BME280;21813;49.686;21.766;2023-02-04T13:56:32;99151.50;;;-1.99;100.00
35226;BME280;21813;49.686;21.766;2023-02-04T13:58:59;99149.13;;;-2.08;98.63
35226;BME280;21813;49.686;21.766;2023-02-04T14:01:25;99165.31;;;-2.11;100.00
35226;BME280;21813;49.686;21.766;2023-02-04T14:03:52;99165.44;;;-2.18;100.00
35226;BME280;21813;49.686;21.766;2023-02-04T14:06:17;99165.47;;;-2.22;100.00
35226;BME280;21813;49.686;21.766;2023-02-04T14:08:48;99167.28;;;-2.27;100.00
35226;BME280;21813;49.686;21.766;2023-02-04T14:11:14;99167.31;;;-2.31;99.73
35226;BME280;21813;49.686;21.766;2023-02-04T14:13:40;99175.09;;;-2.37;100.00
35226;BME280;21813;49.686;21.766;2023-02-04T14:16:06;99197.22;;;-2.38;100.00
35226;BME280;21813;49.686;21.766;2023-02-04T14:18:34;99204.91;;;-2.39;100.00
35226;BME280;21813;49.686;21.766;2023-02-04T14:21:00;99203.19;;;-2.39;100.00
35226;BME280;21813;49.686;21.766;2023-02-04T14:23:26;99206.59;;;-2.40;100.00
35226;BME280;21813;49.686;21.766;2023-02-04T14:25:51;99204.88;;;-2.38;100.00
35226;BME280;21813;49.686;21.766;2023-02-04T14:28:20;99226.16;;;-2.37;100.00
35226;BME280;21813;49.686;21.766;2023-02-04T14:31:03;99231.28;;;-2.39;100.00
35226;BME280;21813;49.686;21.766;2023-02-04T14:33:52;99240.69;;;-2.44;100.00
35226;BME280;21813;49.686;21.766;2023-02-04T14:36:18;99239.06;;;-2.49;100.00
35226;BME280;21813;49.686;21.766;2023-02-04T14:38:46;99246.81;;;-2.55;100.00
35226;BME280;21813;49.686;21.766;2023-02-04T14:41:12;99252.72;;;-2.53;100.00
35226;BME280;21813;49.686;21.766;2023-02-04T14:43:41;99248.59;;;-2.59;100.00
35226;BME280;21813;49.686;21.766;2023-02-04T14:46:07;99249.50;;;-2.64;100.00
35226;BME280;21813;49.686;21.766;2023-02-04T14:48:37;99250.28;;;-2.61;100.00
35226;BME280;21813;49.686;21.766;2023-02-04T14:51:04;99253.69;;;-2.59;100.00
35226;BME280;21813;49.686;21.766;2023-02-04T14:53:39;99265.59;;;-2.61;100.00
35226;BME280;21813;49.686;21.766;2023-02-04T14:56:05;99266.50;;;-2.65;100.00
35226;BME280;21813;49.686;21.766;2023-02-04T14:58:32;99252.97;;;-2.72;100.00
35226;BME280;21813;49.686;21.766;2023-02-04T15:00:58;99265.72;;;-2.70;100.00
35226;BME280;21813;49.686;21.766;2023-02-04T15:03:25;99264.94;;;-2.75;100.00
35226;BME280;21813;49.686;21.766;2023-02-04T15:05:53;99267.47;;;-2.75;100.00
35226;BME280;21813;49.686;21.766;2023-02-04T15:08:19;99269.19;;;-2.74;100.00
35226;BME280;21813;49.686;21.766;2023-02-04T15:10:45;99281.06;;;-2.73;100.00
35226;BME280;21813;49.686;21.766;2023-02-04T15:13:15;99290.44;;;-2.74;100.00
35226;BME280;21813;49.686;21.766;2023-02-04T15:15:40;99285.34;;;-2.77;99.95
35226;BME280;21813;49.686;21.766;2023-02-04T15:18:08;99290.47;;;-2.78;99.51
35226;BME280;21813;49.686;21.766;2023-02-04T15:20:34;99289.66;;;-2.80;100.00
35226;BME280;21813;49.686;21.766;2023-02-04T15:23:02;99306.59;;;-2.76;100.00
35226;BME280;21813;49.686;21.766;2023-02-04T15:25:27;99293.94;;;-2.82;98.93
35226;BME280;21813;49.686;21.766;2023-02-04T15:27:55;99300.69;;;-2.81;97.89
35226;BME280;21813;49.686;21.766;2023-02-04T15:30:21;99298.19;;;-2.83;97.21
35226;BME280;21813;49.686;21.766;2023-02-04T15:32:48;99300.75;;;-2.84;98.41
35226;BME280;21813;49.686;21.766;2023-02-04T15:35:13;99311.84;;;-2.88;97.90
35226;BME280;21813;49.686;21.766;2023-02-04T15:37:40;99319.47;;;-2.85;98.60
35226;BME280;21813;49.686;21.766;2023-02-04T15:40:06;99324.59;;;-2.87;99.92
35226;BME280;21813;49.686;21.766;2023-02-04T15:42:34;99323.75;;;-2.90;99.12
35226;BME280;21813;49.686;21.766;2023-02-04T15:45:01;99320.41;;;-2.95;98.95
35226;BME280;21813;49.686;21.766;2023-02-04T15:47:28;99325.53;;;-2.97;99.12
35226;BME280;21813;49.686;21.766;2023-02-04T15:49:54;99335.72;;;-2.95;99.04
35226;BME280;21813;49.686;21.766;2023-02-04T15:52:22;99345.94;;;-2.98;99.82
35226;BME280;21813;49.686;21.766;2023-02-04T15:54:48;99362.97;;;-3.00;100.00
35226;BME280;21813;49.686;21.766;2023-02-04T15:57:15;99362.09;;;-2.99;100.00
35226;BME280;21813;49.686;21.766;2023-02-04T15:59:41;99368.06;;;-3.00;100.00
35226;BME280;21813;49.686;21.766;2023-02-04T16:02:09;99367.25;;;-3.01;100.00
35226;BME280;21813;49.686;21.766;2023-02-04T16:04:37;99385.06;;;-2.99;100.00
35226;BME280;21813;49.686;21.766;2023-02-04T16:07:27;99377.44;;;-3.04;100.00
35226;BME280;21813;49.686;21.766;2023-02-04T16:09:54;99399.66;;;-3.17;100.00
35226;BME280;21813;49.686;21.766;2023-02-04T16:12:20;99392.13;;;-3.32;100.00
35226;BME280;21813;49.686;21.766;2023-02-04T16:14:52;99392.25;;;-3.44;100.00
35226;BME280;21813;49.686;21.766;2023-02-04T16:17:30;99394.94;;;-3.62;100.00
35226;BME280;21813;49.686;21.766;2023-02-04T16:19:56;99400.97;;;-3.78;100.00
35226;BME280;21813;49.686;21.766;2023-02-04T16:22:23;99387.44;;;-3.85;100.00
35226;BME280;21813;49.686;21.766;2023-02-04T16:24:48;99391.69;;;-3.91;100.00
35226;BME280;21813;49.686;21.766;2023-02-04T16:27:18;99393.41;;;-3.90;100.00
35226;BME280;21813;49.686;21.766;2023-02-04T16:29:44;99397.66;;;-3.89;100.00
35226;BME280;21813;49.686;21.766;2023-02-04T16:32:12;99401.00;;;-3.87;100.00
35226;BME280;21813;49.686;21.766;2023-02-04T16:34:38;99404.44;;;-3.88;100.00
35226;BME280;21813;49.686;21.766;2023-02-04T16:37:05;99408.66;;;-3.84;100.00
35226;BME280;21813;49.686;21.766;2023-02-04T16:39:30;99419.66;;;-3.82;100.00
35226;BME280;21813;49.686;21.766;2023-02-04T16:41:58;99417.13;;;-3.85;100.00
35226;BME280;21813;49.686;21.766;2023-02-04T16:44:24;99413.72;;;-3.83;100.00
35226;BME280;21813;49.686;21.766;2023-02-04T16:46:53;99412.88;;;-3.80;100.00
35226;BME280;21813;49.686;21.766;2023-02-04T16:49:29;99412.03;;;-3.81;100.00
35226;BME280;21813;49.686;21.766;2023-02-04T16:51:59;99427.28;;;-3.78;100.00
35226;BME280;21813;49.686;21.766;2023-02-04T16:54:34;99417.13;;;-3.81;100.00
35226;BME280;21813;49.686;21.766;2023-02-04T16:57:07;99426.41;;;-3.78;100.00
35226;BME280;21813;49.686;21.766;2023-02-04T16:59:32;99445.09;;;-3.76;100.00
35226;BME280;21813;49.686;21.766;2023-02-04T17:02:01;99442.56;;;-3.82;100.00
35226;BME280;21813;49.686;21.766;2023-02-04T17:04:27;99450.19;;;-3.78;100.00
35226;BME280;21813;49.686;21.766;2023-02-04T17:06:53;99440.06;;;-3.85;100.00
35226;BME280;21813;49.686;21.766;2023-02-04T17:09:19;99436.66;;;-3.87;100.00
35226;BME280;21813;49.686;21.766;2023-02-04T17:11:45;99440.94;;;-3.94;100.00
35226;BME280;21813;49.686;21.766;2023-02-04T17:14:12;99448.59;;;-4.02;100.00
35226;BME280;21813;49.686;21.766;2023-02-04T17:16:44;99448.59;;;-4.02;100.00
35226;BME280;21813;49.686;21.766;2023-02-04T17:19:11;99450.31;;;-4.07;100.00
35226;BME280;21813;49.686;21.766;2023-02-04T17:21:39;99450.34;;;-4.10;100.00
35226;BME280;21813;49.686;21.766;2023-02-04T17:24:06;99455.47;;;-4.13;100.00
35226;BME280;21813;49.686;21.766;2023-02-04T17:26:33;99459.69;;;-4.13;100.00
35226;BME280;21813;49.686;21.766;2023-02-04T17:29:07;99459.69;;;-4.15;100.00
35226;BME280;21813;49.686;21.766;2023-02-04T17:31:35;99449.53;;;-4.13;100.00
35226;BME280;21813;49.686;21.766;2023-02-04T17:34:01;99461.41;;;-4.12;100.00
35226;BME280;21813;49.686;21.766;2023-02-04T17:36:28;99457.16;;;-4.12;100.00
35226;BME280;21813;49.686;21.766;2023-02-04T17:38:54;99457.97;;;-4.07;100.00
35226;BME280;21813;49.686;21.766;2023-02-04T17:41:21;99463.91;;;-4.05;100.00
35226;BME280;21813;49.686;21.766;2023-02-04T17:43:47;99467.31;;;-4.03;100.00
35226;BME280;21813;49.686;21.766;2023-02-04T17:46:13;99481.72;;;-4.03;100.00
35226;BME280;21813;49.686;21.766;2023-02-04T17:48:39;99474.09;;;-4.05;100.00
35226;BME280;21813;49.686;21.766;2023-02-04T17:51:13;99472.41;;;-4.07;100.00
35226;BME280;21813;49.686;21.766;2023-02-04T17:53:56;99486.00;;;-4.19;100.00
35226;BME280;21813;49.686;21.766;2023-02-04T17:56:23;99481.84;;;-4.35;100.00
35226;BME280;21813;49.686;21.766;2023-02-04T17:58:49;99482.69;;;-4.36;100.00
35226;BME280;21813;49.686;21.766;2023-02-04T18:01:17;99490.31;;;-4.43;100.00
35226;BME280;21813;49.686;21.766;2023-02-04T18:03:45;99491.19;;;-4.49;100.00
35226;BME280;21813;49.686;21.766;2023-02-04T18:06:22;99477.63;;;-4.51;100.00
35226;BME280;21813;49.686;21.766;2023-02-04T18:08:50;99484.41;;;-4.53;100.00
35226;BME280;21813;49.686;21.766;2023-02-04T18:11:22;99502.22;;;-4.53;100.00
35226;BME280;21813;49.686;21.766;2023-02-04T18:13:48;99485.25;;;-4.54;100.00
35226;BME280;21813;49.686;21.766;2023-02-04T18:16:25;99491.19;;;-4.55;100.00
35226;BME280;21813;49.686;21.766;2023-02-04T18:18:56;99484.41;;;-4.50;100.00
35226;BME280;21813;49.686;21.766;2023-02-04T18:21:27;99489.50;;;-4.50;100.00
35226;BME280;21813;49.686;21.766;2023-02-04T18:26:27;99497.13;;;-4.50;100.00
35226;BME280;21813;49.686;21.766;2023-02-04T18:28:53;99498.81;;;-4.51;100.00
35226;BME280;21813;49.686;21.766;2023-02-04T18:31:31;99494.56;;;-4.50;100.00
35226;BME280;21813;49.686;21.766;2023-02-04T18:33:58;99494.56;;;-4.50;100.00
35226;BME280;21813;49.686;21.766;2023-02-04T18:36:24;99498.81;;;-4.51;100.00
35226;BME280;21813;49.686;21.766;2023-02-04T18:38:51;99500.50;;;-4.53;100.00
35226;BME280;21813;49.686;21.766;2023-02-04T18:43:49;99500.53;;;-4.59;100.00
35226;BME280;21813;49.686;21.766;2023-02-04T18:46:23;99506.47;;;-4.58;100.00
35226;BME280;21813;49.686;21.766;2023-02-04T18:48:59;99523.41;;;-4.57;100.00
35226;BME280;21813;49.686;21.766;2023-02-04T18:51:28;99520.84;;;-4.62;100.00
35226;BME280;21813;49.686;21.766;2023-02-04T18:54:20;99522.56;;;-4.59;100.00
35226;BME280;21813;49.686;21.766;2023-02-04T18:56:49;99530.19;;;-4.62;100.00
35226;BME280;21813;49.686;21.766;2023-02-04T18:59:33;99530.19;;;-4.62;100.00
35226;BME280;21813;49.686;21.766;2023-02-04T19:02:00;99533.59;;;-4.69;100.00
35226;BME280;21813;49.686;21.766;2023-02-04T19:04:26;99540.38;;;-4.65;100.00
35226;BME280;21813;49.686;21.766;2023-02-04T19:06:56;99544.59;;;-4.70;100.00
35226;BME280;21813;49.686;21.766;2023-02-04T19:09:25;99552.25;;;-4.67;100.00
35226;BME280;21813;49.686;21.766;2023-02-04T19:11:59;99545.44;;;-4.71;100.00
35226;BME280;21813;49.686;21.766;2023-02-04T19:14:44;99549.69;;;-4.75;100.00
35226;BME280;21813;49.686;21.766;2023-02-04T19:17:27;99550.53;;;-4.76;100.00
35226;BME280;21813;49.686;21.766;2023-02-04T19:20:21;99555.63;;;-4.74;100.00
35226;BME280;21813;49.686;21.766;2023-02-04T19:22:51;99559.03;;;-4.72;100.00
35226;BME280;21813;49.686;21.766;2023-02-04T19:27:57;99567.50;;;-4.73;100.00
35226;BME280;21813;49.686;21.766;2023-02-04T19:32:57;99560.69;;;-4.76;100.00
35226;BME280;21813;49.686;21.766;2023-02-04T19:35:34;99552.22;;;-4.79;100.00
35226;BME280;21813;49.686;21.766;2023-02-04T19:38:21;99564.09;;;-4.78;100.00
35226;BME280;21813;49.686;21.766;2023-02-04T19:40:52;99559.88;;;-4.82;100.00
35226;BME280;21813;49.686;21.766;2023-02-04T19:43:19;99565.78;;;-4.80;100.00
35226;BME280;21813;49.686;21.766;2023-02-04T19:45:49;99568.34;;;-4.82;100.00
35226;BME280;21813;49.686;21.766;2023-02-04T19:48:33;99567.50;;;-4.85;100.00
35226;BME280;21813;49.686;21.766;2023-02-04T19:51:11;99572.59;;;-4.85;100.00